Terminal Aerodrome Forecast
Issued by NWS Bismarck, ND

Home | Current Version | Previous Version | Graphics & Text | Print | Product List | Glossary On
Versions: 1 2 3 4 5 6 7 8 9 10 11 12 13 14 15 16
000
FTUS43 KBIS 261400 AAA
TAFBIS
TAF AMD
KBIS 261437Z 2615/2712 32010KT P6SM -SHSN OVC018
     FM261800 33008KT P6SM BKN025 OVC035
     FM262000 32006KT P6SM SCT030 SCT220
     FM270100 VRB03KT P6SM SCT015 BKN035=

USA.gov is the U.S. government's official web portal to all federal, state and local government web resources and services.